This is the latest recevied weather packets stored in our database for station/object KD8ZLZ-13. If no packets are shown the sender has not sent any weather packets the latest 10 day(s).
| Time | Temp. | Humidity | Pressure | Rain* | Wind** | Luminosity | Snow |
|---|---|---|---|---|---|---|---|
| 1777729391 | 6.11° C | 53% | 1019 hPa | 0 mm | - | 494 W/m² | - |
| 1777728791 | 6.11° C | 59% | 1019.3 hPa | 0 mm | - | 438 W/m² | - |
| 1777728191 | 5.56° C | 60% | 1019.3 hPa | 0 mm | - | 398 W/m² | - |
| 1777727591 | 5.56° C | 61% | 1019.3 hPa | 0 mm | - | 346 W/m² | - |
| 1777726991 | 5.56° C | 63% | 1019.3 hPa | 0 mm | - | 283 W/m² | - |
| 1777726391 | 5° C | 62% | 1019 hPa | 0 mm | - | 227 W/m² | - |
| 1777725791 | 4.44° C | 64% | 1019.3 hPa | 0 mm | - | 181 W/m² | - |
| 1777725191 | 4.44° C | 66% | 1019 hPa | 0 mm | - | 143 W/m² | - |
| 1777724591 | 3.89° C | 68% | 1019 hPa | 0 mm | - | 117 W/m² | - |
| 1777723991 | 3.33° C | 74% | 1019 hPa | 0 mm | - | 95 W/m² | - |
| 1777723391 | 2.78° C | 79% | 1019 hPa | 0 mm | - | 84 W/m² | - |
| 1777722791 | 2.22° C | 89% | 1019 hPa | 0 mm | - | 42 W/m² | - |
| 1777722191 | 1.11° C | 94% | 1019 hPa | 0 mm | - | 51 W/m² | - |
| 1777721591 | 1.11° C | 94% | 1018.7 hPa | 0 mm | - | 33 W/m² | - |
| 1777720991 | 0.56° C | 94% | 1018.7 hPa | 0 mm | - | 28 W/m² | - |
| 1777720391 | 0.56° C | 93% | 1018.7 hPa | 0 mm | - | 22 W/m² | - |
| 1777719791 | 1.11° C | 93% | 1018.7 hPa | 0 mm | - | 18 W/m² | - |
| 1777719191 | 1.11° C | 93% | 1018.7 hPa | 0 mm | - | 12 W/m² | - |
| 1777718591 | 1.11° C | 92% | 1018.3 hPa | 0 mm | - | 7 W/m² | - |
| 1777717991 | 1.67° C | 92% | 1018.3 hPa | 0 mm | - | 3 W/m² | - |
| 1777717391 | 1.67° C | 92% | 1018.3 hPa | 0 mm | - | 0 W/m² | - |
| 1777716791 | 1.67° C | 91% | 1018.3 hPa | 0 mm | - | 0 W/m² | - |
| 1777716191 | 1.67° C | 92% | 1018.3 hPa | 0 mm | - | 0 W/m² | - |
| 1777679897 | 7.78° C | 56% | 1015.9 hPa | 0 mm | - | - | - |
| 1777675668 | 8.33° C | 54% | 1015.9 hPa | 18.8 mm | - | 78 W/m² | - |
* Rain latest hour (hover to see other rain measurements)
** Current wind speed in m/s (hover to see current wind gust speed)